createdAt,value
2023-11-25T00:00:08.929Z,96.90
2023-11-25T00:02:37.091Z,96.90
2023-11-25T00:05:06.864Z,96.90
2023-11-25T00:07:35.253Z,96.80
2023-11-25T00:10:06.250Z,96.90
2023-11-25T00:12:34.467Z,96.80
2023-11-25T00:15:02.786Z,96.80
2023-11-25T00:17:31.476Z,96.70
2023-11-25T00:20:00.050Z,96.80
2023-11-25T00:22:28.302Z,96.80
2023-11-25T00:24:57.516Z,96.90
2023-11-25T00:27:27.039Z,96.90
2023-11-25T00:29:55.195Z,96.90
2023-11-25T00:32:23.336Z,96.80
2023-11-25T00:34:51.532Z,96.80
2023-11-25T00:37:19.704Z,96.90
2023-11-25T00:39:47.814Z,96.90
2023-11-25T00:42:16.340Z,96.80
2023-11-25T00:44:45.815Z,96.90
2023-11-25T00:47:14.710Z,96.90
2023-11-25T00:49:44.823Z,96.90
2023-11-25T00:52:13.141Z,96.90
2023-11-25T00:54:41.523Z,96.90
2023-11-25T00:57:09.810Z,96.90
2023-11-25T00:59:38.211Z,96.80
2023-11-25T01:02:07.928Z,96.80
2023-11-25T01:04:36.172Z,96.80
2023-11-25T01:07:04.372Z,96.90
2023-11-25T01:09:32.985Z,96.90
2023-11-25T01:12:01.123Z,96.90
2023-11-25T01:14:29.481Z,96.90
2023-11-25T01:16:58.269Z,96.90
2023-11-25T01:19:29.180Z,96.90
2023-11-25T01:21:57.574Z,96.80
2023-11-25T01:24:25.792Z,96.80
2023-11-25T01:26:54.157Z,96.70
2023-11-25T01:29:23.856Z,96.80
2023-11-25T01:31:52.056Z,96.90
2023-11-25T01:34:21.424Z,96.90
2023-11-25T01:36:51.085Z,96.90
2023-11-25T01:39:19.220Z,96.80
2023-11-25T01:41:47.352Z,96.80
2023-11-25T01:44:15.533Z,96.80
2023-11-25T01:46:45.152Z,96.80
2023-11-25T01:49:16.626Z,96.70
2023-11-25T01:51:48.069Z,96.80
2023-11-25T01:54:18.670Z,96.80
2023-11-25T01:56:50.820Z,96.80
2023-11-25T01:59:20.695Z,96.90
2023-11-25T02:01:50.292Z,96.90
2023-11-25T02:04:18.822Z,96.90
2023-11-25T02:06:47.089Z,96.90
2023-11-25T02:09:15.324Z,96.80
2023-11-25T02:11:57.200Z,96.80
2023-11-25T02:14:26.274Z,96.90
2023-11-25T02:16:54.915Z,96.90
2023-11-25T02:19:25.640Z,96.90
2023-11-25T02:21:54.253Z,97.00
2023-11-25T02:24:27.899Z,96.90
2023-11-25T02:27:02.205Z,97.00
2023-11-25T02:29:43.194Z,97.00
2023-11-25T02:32:14.489Z,97.00
2023-11-25T02:34:49.107Z,96.90
2023-11-25T02:37:21.119Z,96.90
2023-11-25T02:39:53.346Z,96.90
2023-11-25T02:42:23.401Z,96.90
2023-11-25T02:44:58.609Z,96.90
2023-11-25T02:47:41.594Z,96.90
2023-11-25T02:50:20.440Z,96.90
2023-11-25T02:52:48.666Z,97.00
2023-11-25T02:55:18.419Z,96.90
2023-11-25T02:57:48.213Z,96.90
2023-11-25T03:00:29.108Z,97.00
2023-11-25T03:03:13.784Z,97.00
2023-11-25T03:05:47.646Z,96.90
2023-11-25T03:08:20.698Z,96.90
2023-11-25T03:10:52.767Z,96.90
2023-11-25T03:13:24.625Z,97.00
2023-11-25T03:16:00.575Z,96.80
2023-11-25T03:18:34.870Z,96.90
2023-11-25T03:21:18.936Z,96.90
2023-11-25T03:26:49.374Z,96.90
2023-11-25T03:29:19.996Z,96.90
2023-11-25T03:31:49.177Z,96.90
2023-11-25T03:34:20.695Z,97.00
2023-11-25T03:36:53.028Z,96.90
2023-11-25T03:39:39.610Z,96.90
2023-11-25T03:42:23.110Z,97.00
2023-11-25T03:45:05.006Z,96.90
2023-11-25T03:50:20.206Z,97.00
2023-11-25T03:53:03.630Z,97.00
2023-11-25T03:55:40.197Z,97.00
2023-11-25T03:58:30.631Z,96.90
2023-11-25T04:01:02.558Z,97.00
2023-11-25T04:03:32.971Z,97.00
2023-11-25T04:06:01.373Z,96.90
2023-11-25T04:08:36.121Z,96.90
2023-11-25T04:11:08.883Z,96.80
2023-11-25T04:13:42.053Z,96.90
2023-11-25T04:16:16.257Z,96.80
2023-11-25T04:21:32.609Z,96.90
2023-11-25T04:24:02.163Z,96.90
2023-11-25T04:26:32.145Z,96.90
2023-11-25T04:31:52.047Z,97.00
2023-11-25T04:34:28.688Z,97.00
2023-11-25T04:37:03.864Z,97.00
2023-11-25T04:39:44.101Z,97.00
2023-11-25T04:45:18.356Z,97.00
2023-11-25T04:47:51.840Z,97.00
2023-11-25T04:50:36.010Z,97.00
2023-11-25T04:53:04.279Z,97.00
2023-11-25T04:55:40.672Z,97.00
2023-11-25T05:01:02.748Z,97.00
2023-11-25T05:03:36.926Z,97.00
2023-11-25T05:06:26.345Z,96.90
2023-11-25T05:08:57.104Z,96.90
2023-11-25T05:14:29.750Z,96.90
2023-11-25T05:17:30.797Z,96.90
2023-11-25T05:20:02.826Z,96.90
2023-11-25T05:22:31.235Z,96.90
2023-11-25T05:25:15.233Z,96.90
2023-11-25T05:27:46.783Z,96.90
2023-11-25T05:30:19.718Z,96.90
2023-11-25T05:35:34.587Z,96.90
2023-11-25T05:38:11.836Z,96.90
2023-11-25T05:40:54.278Z,96.90
2023-11-25T05:43:26.516Z,97.00
2023-11-25T05:46:02.279Z,97.00
2023-11-25T05:48:38.240Z,96.90
2023-11-25T05:51:16.744Z,96.90
2023-11-25T05:53:45.003Z,97.00
2023-11-25T05:56:15.750Z,97.00
2023-11-25T05:58:47.314Z,97.00
2023-11-25T06:04:04.246Z,97.00
2023-11-25T06:06:46.756Z,97.10
2023-11-25T06:12:02.179Z,97.10
2023-11-25T06:14:37.258Z,97.10
2023-11-25T06:17:08.933Z,97.10
2023-11-25T06:19:47.465Z,97.10
2023-11-25T06:22:51.211Z,97.10
2023-11-25T06:25:39.389Z,97.10
2023-11-25T06:28:11.318Z,97.10
2023-11-25T06:30:53.298Z,97.10
2023-11-25T06:33:23.772Z,97.10
2023-11-25T06:35:56.821Z,97.10
2023-11-25T06:38:30.604Z,97.10
2023-11-25T06:41:05.626Z,97.10
2023-11-25T06:46:32.808Z,97.10
2023-11-25T06:49:02.290Z,97.10
2023-11-25T06:51:35.525Z,97.10
2023-11-25T06:54:07.543Z,97.10
2023-11-25T06:56:42.272Z,97.10
2023-11-25T06:59:24.242Z,97.10
2023-11-25T07:02:01.406Z,97.10
2023-11-25T07:04:33.857Z,97.10
2023-11-25T07:07:05.677Z,97.10
2023-11-25T07:09:35.280Z,97.10
2023-11-25T07:12:19.433Z,97.10
2023-11-25T07:14:51.038Z,97.10
2023-11-25T07:17:27.727Z,97.10
2023-11-25T07:19:58.564Z,97.10
2023-11-25T07:22:35.357Z,97.10
2023-11-25T07:25:04.100Z,97.10
2023-11-25T07:27:36.402Z,97.10
2023-11-25T07:30:08.516Z,97.10
2023-11-25T07:35:22.483Z,97.10
2023-11-25T07:37:50.777Z,97.10
2023-11-25T07:40:30.468Z,97.10
2023-11-25T07:43:07.430Z,97.10
2023-11-25T07:45:39.557Z,97.10
2023-11-25T07:48:10.166Z,97.20
2023-11-25T07:50:50.381Z,97.10
2023-11-25T07:53:37.235Z,97.10
2023-11-25T07:56:12.880Z,97.10
2023-11-25T07:58:46.417Z,97.10
2023-11-25T08:01:17.808Z,97.10
2023-11-25T08:06:34.118Z,97.10
2023-11-25T08:09:07.908Z,97.10
2023-11-25T08:11:38.926Z,97.10
2023-11-25T08:14:11.151Z,97.20
2023-11-25T08:16:51.067Z,97.10
2023-11-25T08:19:22.695Z,97.10
2023-11-25T08:22:02.274Z,97.10
2023-11-25T08:24:40.844Z,97.10
2023-11-25T08:27:09.624Z,97.10
2023-11-25T08:29:55.740Z,97.10
2023-11-25T08:32:24.607Z,97.10
2023-11-25T08:35:01.611Z,97.10
2023-11-25T08:37:29.827Z,97.10
2023-11-25T08:39:59.295Z,97.10
2023-11-25T08:42:45.446Z,97.00
2023-11-25T08:45:39.712Z,97.10
2023-11-25T08:48:15.494Z,97.10
2023-11-25T08:50:53.025Z,97.10
2023-11-25T08:53:26.958Z,97.10
2023-11-25T08:56:10.314Z,97.00
2023-11-25T08:58:42.771Z,97.10
2023-11-25T09:01:13.603Z,97.10
2023-11-25T09:03:49.496Z,97.10
2023-11-25T09:06:32.084Z,97.10
2023-11-25T09:09:05.607Z,97.10
2023-11-25T09:11:40.200Z,97.10
2023-11-25T09:19:57.181Z,97.10
2023-11-25T09:22:26.617Z,97.10
2023-11-25T09:30:24.471Z,97.10
2023-11-25T09:33:03.005Z,97.10
2023-11-25T09:35:39.876Z,97.00
2023-11-25T09:38:08.403Z,97.10
2023-11-25T09:40:38.151Z,97.00
2023-11-25T09:43:06.835Z,97.00
2023-11-25T09:45:43.418Z,97.00
2023-11-25T09:48:20.115Z,97.00
2023-11-25T09:50:52.585Z,97.00
2023-11-25T09:53:30.087Z,97.00
2023-11-25T09:56:08.310Z,97.00
2023-11-25T09:58:52.524Z,97.00
2023-11-25T10:04:17.413Z,96.90
2023-11-25T10:06:58.592Z,96.80
2023-11-25T10:09:31.967Z,96.70
2023-11-25T10:12:14.498Z,96.80
2023-11-25T10:15:03.772Z,96.90
2023-11-25T10:20:24.712Z,96.80
2023-11-25T10:23:11.025Z,96.90
2023-11-25T10:25:45.476Z,96.90
2023-11-25T10:28:32.946Z,96.90
2023-11-25T10:31:08.799Z,96.80
2023-11-25T10:33:41.936Z,96.80
2023-11-25T10:36:31.508Z,96.90
2023-11-25T10:39:05.006Z,96.90
2023-11-25T10:41:47.975Z,96.90
2023-11-25T10:44:31.196Z,96.90
2023-11-25T10:47:13.488Z,97.00
2023-11-25T10:49:45.054Z,96.90
2023-11-25T10:52:17.192Z,96.80
2023-11-25T10:54:52.745Z,96.70
2023-11-25T10:57:27.552Z,96.80
2023-11-25T11:00:01.756Z,96.90
2023-11-25T11:02:53.901Z,96.90
2023-11-25T11:05:34.134Z,96.80
2023-11-25T11:11:33.028Z,96.80
2023-11-25T11:17:10.956Z,96.90
2023-11-25T11:19:43.420Z,96.90
2023-11-25T11:22:13.907Z,96.80
2023-11-25T11:25:00.300Z,96.90
2023-11-25T11:27:42.599Z,96.90
2023-11-25T11:30:21.677Z,96.80
2023-11-25T11:32:51.978Z,96.90
2023-11-25T11:35:22.336Z,96.90
2023-11-25T11:38:05.975Z,96.80
2023-11-25T11:40:37.959Z,96.80
2023-11-25T11:43:27.881Z,96.60
2023-11-25T11:46:04.027Z,96.70
2023-11-25T11:48:33.272Z,96.70
2023-11-25T11:51:02.466Z,96.70
2023-11-25T11:53:30.614Z,96.70
2023-11-25T11:56:01.153Z,96.70
2023-11-25T11:58:38.157Z,96.60
2023-11-25T12:01:24.999Z,96.60
2023-11-25T12:04:09.193Z,96.80
2023-11-25T12:09:26.389Z,96.70
2023-11-25T12:12:01.319Z,96.70
2023-11-25T12:14:42.989Z,96.80
2023-11-25T12:17:13.827Z,96.70
2023-11-25T12:19:53.164Z,96.60
2023-11-25T12:22:23.797Z,96.60
2023-11-25T12:24:55.081Z,96.60
2023-11-25T12:27:36.926Z,96.60
2023-11-25T12:30:12.804Z,96.60
2023-11-25T12:32:41.950Z,96.60
2023-11-25T12:35:18.288Z,96.60
2023-11-25T12:38:11.504Z,96.60
2023-11-25T12:40:53.775Z,96.50
2023-11-25T12:43:27.537Z,96.60
2023-11-25T12:46:14.581Z,96.60
2023-11-25T12:48:50.986Z,96.30
2023-11-25T12:51:30.374Z,96.50
2023-11-25T12:54:06.487Z,96.60
2023-11-25T12:56:39.175Z,96.60
2023-11-25T12:59:10.416Z,96.60
2023-11-25T13:01:45.061Z,96.40
2023-11-25T13:04:21.997Z,96.70
2023-11-25T13:06:51.274Z,96.70
2023-11-25T13:09:28.779Z,96.70
2023-11-25T13:11:57.192Z,96.70
2023-11-25T13:14:26.664Z,96.60
2023-11-25T13:16:56.740Z,96.70
2023-11-25T13:19:27.209Z,96.70
2023-11-25T13:21:55.490Z,96.60
2023-11-25T13:24:23.745Z,96.50
2023-11-25T13:26:51.912Z,96.50
2023-11-25T13:29:20.436Z,96.40
2023-11-25T13:32:06.080Z,96.50
2023-11-25T13:34:37.465Z,96.50
2023-11-25T13:39:54.203Z,96.40
2023-11-25T13:42:32.418Z,96.50
2023-11-25T13:45:03.557Z,96.60
2023-11-25T13:47:31.750Z,96.60
2023-11-25T13:50:01.428Z,96.60
2023-11-25T13:52:29.576Z,96.50
2023-11-25T13:54:57.717Z,96.60
2023-11-25T13:57:26.839Z,96.50
2023-11-25T13:59:54.956Z,96.60
2023-11-25T14:02:23.481Z,96.60
2023-11-25T14:04:51.720Z,96.70
2023-11-25T14:07:22.854Z,96.60
2023-11-25T14:09:51.001Z,96.60
2023-11-25T14:12:19.143Z,96.60
2023-11-25T14:14:47.305Z,96.60
2023-11-25T14:17:18.079Z,96.60
2023-11-25T14:19:47.808Z,96.70
2023-11-25T14:22:16.632Z,96.70
2023-11-25T14:24:46.550Z,96.70
2023-11-25T14:27:14.735Z,96.70
2023-11-25T14:29:45.114Z,96.80
2023-11-25T14:32:13.373Z,96.80
2023-11-25T14:34:41.505Z,96.80
2023-11-25T14:37:09.681Z,96.90
2023-11-25T14:39:47.191Z,96.70
2023-11-25T14:42:20.578Z,96.80
2023-11-25T14:44:51.527Z,96.70
2023-11-25T14:47:19.878Z,96.80
2023-11-25T14:49:48.096Z,96.70
2023-11-25T14:52:16.275Z,96.80
2023-11-25T14:54:44.609Z,96.90
2023-11-25T14:57:12.851Z,96.90
2023-11-25T14:59:42.713Z,96.90
2023-11-25T15:02:10.963Z,96.90
2023-11-25T15:04:39.465Z,96.90
2023-11-25T15:07:07.829Z,96.90
2023-11-25T15:09:36.141Z,96.90
2023-11-25T15:12:04.431Z,96.90
2023-11-25T15:14:32.593Z,96.90
2023-11-25T15:17:03.099Z,96.90
2023-11-25T15:19:31.347Z,96.90
2023-11-25T15:21:59.504Z,96.90
2023-11-25T15:24:28.193Z,96.90
2023-11-25T15:26:56.335Z,96.90
2023-11-25T15:29:27.469Z,96.90
2023-11-25T15:31:58.123Z,97.00
2023-11-25T15:34:27.746Z,96.80
2023-11-25T15:36:59.815Z,96.90
2023-11-25T15:39:28.731Z,96.90
2023-11-25T15:41:56.954Z,96.90
2023-11-25T15:44:25.752Z,96.90
2023-11-25T15:46:53.930Z,96.90
2023-11-25T15:49:30.842Z,97.00
2023-11-25T15:52:00.446Z,97.00
2023-11-25T15:54:29.727Z,97.00
2023-11-25T15:56:57.857Z,97.00
2023-11-25T15:59:30.926Z,97.00
2023-11-25T16:02:01.496Z,96.90
2023-11-25T16:04:31.262Z,96.90
2023-11-25T16:07:00.789Z,96.90
2023-11-25T16:09:28.982Z,96.90
2023-11-25T16:11:57.178Z,96.80
2023-11-25T16:14:25.332Z,96.80
2023-11-25T16:16:53.479Z,96.90
2023-11-25T16:19:21.574Z,96.90
2023-11-25T16:21:53.715Z,96.80
2023-11-25T16:24:25.257Z,96.80
2023-11-25T16:26:53.413Z,96.70
2023-11-25T16:29:21.609Z,96.80
2023-11-25T16:31:49.839Z,96.70
2023-11-25T16:34:17.993Z,96.90
2023-11-25T16:36:46.202Z,96.90
2023-11-25T16:39:18.379Z,96.90
2023-11-25T16:41:51.221Z,97.00
2023-11-25T16:44:22.106Z,97.00
2023-11-25T16:46:50.674Z,97.00
2023-11-25T16:49:18.976Z,97.00
2023-11-25T16:51:47.234Z,97.10
2023-11-25T16:54:15.470Z,97.00
2023-11-25T16:56:43.636Z,97.10
2023-11-25T16:59:13.231Z,97.10
2023-11-25T17:01:43.549Z,97.10
2023-11-25T17:04:11.866Z,97.10
2023-11-25T17:06:40.503Z,97.10
2023-11-25T17:09:09.236Z,97.10
2023-11-25T17:11:37.643Z,97.10
2023-11-25T17:14:06.207Z,97.00
2023-11-25T17:16:36.880Z,97.10
2023-11-25T17:19:06.155Z,97.00
2023-11-25T17:21:34.685Z,97.00
2023-11-25T17:24:05.116Z,97.00
2023-11-25T17:26:33.258Z,97.10
2023-11-25T17:29:01.418Z,97.10
2023-11-25T17:31:29.570Z,97.00
2023-11-25T17:33:59.151Z,97.00
2023-11-25T17:36:27.450Z,97.00
2023-11-25T17:38:55.580Z,97.00
2023-11-25T17:41:23.741Z,97.00
2023-11-25T17:43:51.884Z,97.00
2023-11-25T17:46:20.154Z,97.00
2023-11-25T17:48:48.393Z,97.10
2023-11-25T17:51:19.751Z,97.00
2023-11-25T17:53:48.372Z,97.00
2023-11-25T17:56:16.656Z,97.00
2023-11-25T17:58:45.019Z,97.00
2023-11-25T18:01:13.648Z,97.00
2023-11-25T18:03:42.103Z,97.10
2023-11-25T18:06:10.454Z,97.10
2023-11-25T18:08:40.143Z,97.10
2023-11-25T18:11:08.265Z,97.10
2023-11-25T18:13:38.500Z,97.10
2023-11-25T18:16:07.696Z,97.10
2023-11-25T18:18:35.930Z,97.10
2023-11-25T18:21:04.108Z,97.10
2023-11-25T18:23:32.318Z,97.20
2023-11-25T18:26:01.938Z,97.10
2023-11-25T18:28:30.125Z,97.10
2023-11-25T18:30:58.423Z,97.10
2023-11-25T18:33:26.626Z,97.10
2023-11-25T18:35:54.972Z,97.10
2023-11-25T18:38:23.572Z,97.10
2023-11-25T18:40:51.937Z,97.10
2023-11-25T18:43:21.701Z,97.10
2023-11-25T18:45:49.894Z,97.10
2023-11-25T18:48:18.073Z,97.10
2023-11-25T18:50:46.231Z,97.20
2023-11-25T18:53:14.470Z,97.20
2023-11-25T18:55:42.778Z,97.20
2023-11-25T18:58:10.933Z,97.20
2023-11-25T19:00:40.511Z,97.20
2023-11-25T19:03:10.891Z,97.20
2023-11-25T19:05:39.022Z,97.20
2023-11-25T19:08:07.872Z,97.10
2023-11-25T19:10:36.041Z,97.20
2023-11-25T19:13:05.256Z,97.20
2023-11-25T19:15:33.354Z,97.20
2023-11-25T19:18:04.495Z,97.20
2023-11-25T19:20:32.759Z,97.20
2023-11-25T19:23:00.976Z,97.20
2023-11-25T19:25:29.175Z,97.10
2023-11-25T19:27:57.536Z,97.10
2023-11-25T19:30:25.732Z,97.20
2023-11-25T19:32:53.897Z,97.10
2023-11-25T19:35:23.420Z,97.10
2023-11-25T19:37:51.628Z,97.10
2023-11-25T19:40:20.208Z,97.10
2023-11-25T19:42:48.445Z,97.10
2023-11-25T19:45:16.806Z,97.10
2023-11-25T19:47:45.021Z,97.10
2023-11-25T19:50:14.264Z,97.10
2023-11-25T19:52:44.681Z,97.10
2023-11-25T19:55:14.394Z,97.10
2023-11-25T19:57:44.083Z,97.10
2023-11-25T20:00:14.930Z,97.10
2023-11-25T20:02:44.243Z,97.10
2023-11-25T20:05:13.962Z,97.10
2023-11-25T20:07:46.905Z,97.10
2023-11-25T20:10:16.628Z,97.10
2023-11-25T20:12:45.700Z,97.10
2023-11-25T20:15:15.074Z,97.10
2023-11-25T20:17:44.147Z,97.10
2023-11-25T20:20:15.744Z,97.10
2023-11-25T20:22:45.966Z,97.10
2023-11-25T20:25:15.955Z,97.00
2023-11-25T20:27:46.695Z,97.00
2023-11-25T20:30:17.441Z,97.00
2023-11-25T20:32:46.480Z,97.00
2023-11-25T20:35:16.932Z,97.00
2023-11-25T20:37:48.057Z,96.90
2023-11-25T20:40:17.852Z,97.00
2023-11-25T20:42:47.996Z,97.00
2023-11-25T20:45:17.468Z,97.00
2023-11-25T20:47:46.572Z,97.10
2023-11-25T20:50:14.934Z,97.10
2023-11-25T20:52:43.910Z,97.10
2023-11-25T20:55:15.248Z,97.10
2023-11-25T20:57:44.209Z,97.00
2023-11-25T21:00:17.220Z,97.00
2023-11-25T21:02:47.006Z,97.10
2023-11-25T21:08:08.786Z,97.10
2023-11-25T21:10:43.101Z,97.20
2023-11-25T21:13:14.833Z,97.10
2023-11-25T21:15:44.269Z,97.20
2023-11-25T21:18:13.398Z,97.10
2023-11-25T21:20:42.305Z,97.10
2023-11-25T21:23:11.351Z,97.10
2023-11-25T21:25:41.781Z,97.10
2023-11-25T21:28:10.664Z,97.10
2023-11-25T21:30:39.601Z,97.10
2023-11-25T21:33:08.383Z,97.10
2023-11-25T21:35:38.126Z,97.00
2023-11-25T21:38:06.764Z,97.10
2023-11-25T21:40:35.924Z,97.10
2023-11-25T21:43:06.274Z,97.10
2023-11-25T21:45:36.930Z,97.00
2023-11-25T21:48:06.588Z,96.90
2023-11-25T21:50:35.374Z,97.00
2023-11-25T21:53:04.587Z,97.10
2023-11-25T21:55:33.677Z,97.00
2023-11-25T21:58:02.841Z,97.00
2023-11-25T22:00:33.524Z,97.00
2023-11-25T22:03:02.514Z,97.00
2023-11-25T22:05:31.861Z,97.10
2023-11-25T22:08:00.765Z,97.10
2023-11-25T22:10:30.244Z,97.20
2023-11-25T22:12:59.634Z,97.20
2023-11-25T22:15:28.592Z,97.10
2023-11-25T22:17:59.470Z,97.10
2023-11-25T22:20:29.234Z,97.00
2023-11-25T22:22:58.233Z,97.10
2023-11-25T22:25:35.857Z,97.00
2023-11-25T22:28:05.748Z,97.00
2023-11-25T22:30:35.460Z,97.00
2023-11-25T22:33:06.899Z,97.00
2023-11-25T22:35:47.791Z,97.10
2023-11-25T22:38:22.436Z,97.10
2023-11-25T22:40:51.408Z,97.10
2023-11-25T22:43:20.656Z,97.00
2023-11-25T22:45:50.345Z,97.10
2023-11-25T22:48:20.900Z,97.00
2023-11-25T22:50:50.222Z,97.00
2023-11-25T22:53:19.075Z,97.10
2023-11-25T22:55:48.423Z,97.00
2023-11-25T22:58:17.528Z,97.00
2023-11-25T23:00:51.338Z,97.00
2023-11-25T23:03:23.006Z,96.90
2023-11-25T23:05:52.480Z,97.00
2023-11-25T23:08:23.022Z,97.00
2023-11-25T23:10:52.576Z,97.00
2023-11-25T23:13:21.757Z,97.00
2023-11-25T23:15:50.452Z,96.90
2023-11-25T23:18:21.064Z,97.00
2023-11-25T23:20:50.269Z,97.00
2023-11-25T23:23:19.393Z,97.00
2023-11-25T23:25:49.928Z,97.00
2023-11-25T23:28:19.101Z,96.80
2023-11-25T23:30:47.772Z,96.90
2023-11-25T23:33:16.669Z,96.90
2023-11-25T23:35:47.104Z,96.90
2023-11-25T23:38:16.362Z,97.00
2023-11-25T23:40:46.465Z,97.00
2023-11-25T23:43:16.142Z,97.10
2023-11-25T23:45:46.808Z,97.10
2023-11-25T23:48:15.981Z,97.10
2023-11-25T23:50:46.461Z,97.20
2023-11-25T23:53:15.519Z,97.10
2023-11-25T23:55:44.413Z,97.10
2023-11-25T23:58:13.173Z,97.20
